createdAt,value
2018-01-04T00:01:01.374Z,7.18
2018-01-04T00:02:01.077Z,7.16
2018-01-04T00:03:00.817Z,7.13
2018-01-04T00:04:01.234Z,7.13
2018-01-04T00:05:01.776Z,7.13
2018-01-04T00:06:01.171Z,7.15
2018-01-04T00:07:02.081Z,7.18
2018-01-04T00:08:02.075Z,7.16
2018-01-04T00:09:01.958Z,7.18
2018-01-04T00:10:02.412Z,7.21
2018-01-04T00:11:02.842Z,7.15
2018-01-04T00:12:03.372Z,7.15
2018-01-04T00:13:02.632Z,7.21
2018-01-04T00:14:02.695Z,7.18
2018-01-04T00:15:02.797Z,7.23
2018-01-04T00:16:03.372Z,7.21
2018-01-04T00:17:02.783Z,7.23
2018-01-04T00:18:02.846Z,7.27
2018-01-04T00:19:02.980Z,7.31
2018-01-04T00:20:03.143Z,7.31
2018-01-04T00:21:04.329Z,7.31
2018-01-04T00:22:04.109Z,7.36
2018-01-04T00:23:03.949Z,7.47
2018-01-04T00:24:03.854Z,7.33
2018-01-04T00:25:04.532Z,7.36
2018-01-04T00:26:04.270Z,7.36
2018-01-04T00:27:04.401Z,7.37
2018-01-04T00:28:04.691Z,7.47
2018-01-04T00:29:04.632Z,7.44
2018-01-04T00:30:04.664Z,7.49
2018-01-04T00:31:05.184Z,7.3
2018-01-04T00:32:05.173Z,7.4
2018-01-04T00:33:05.354Z,7.47
2018-01-04T00:34:05.750Z,7.47
2018-01-04T00:35:05.802Z,7.52
2018-01-04T00:36:06.133Z,7.52
2018-01-04T00:37:05.853Z,7.47
2018-01-04T00:38:06.014Z,7.4
2018-01-04T00:39:06.186Z,7.47
2018-01-04T00:40:07.630Z,7.58
2018-01-04T00:41:07.120Z,7.51
2018-01-04T00:42:07.352Z,7.33
2018-01-04T00:43:07.278Z,7.47
2018-01-04T00:44:07.956Z,7.36
2018-01-04T00:45:08.263Z,7.4
2018-01-04T00:46:08.205Z,7.33
2018-01-04T00:47:08.786Z,7.37
2018-01-04T00:48:08.689Z,7.26
2018-01-04T00:49:08.895Z,7.29
2018-01-04T00:50:08.945Z,7.31
2018-01-04T00:51:08.945Z,7.26
2018-01-04T00:52:09.374Z,7.19
2018-01-04T00:53:09.595Z,7.16
2018-01-04T00:54:09.431Z,7.22
2018-01-04T00:55:09.769Z,7.13
2018-01-04T00:56:10.455Z,7.08
2018-01-04T00:57:11.255Z,7.04
2018-01-04T00:58:10.382Z,7.03
2018-01-04T00:59:11.582Z,7.05
2018-01-04T01:00:11.352Z,6.98
2018-01-04T01:01:11.197Z,7
2018-01-04T01:02:11.204Z,6.95
2018-01-04T01:03:11.257Z,6.94
2018-01-04T01:04:11.739Z,6.97
2018-01-04T01:05:11.714Z,6.94
2018-01-04T01:06:12.131Z,6.95
2018-01-04T01:07:11.619Z,6.97
2018-01-04T01:08:11.998Z,6.98
2018-01-04T01:09:12.281Z,6.88
2018-01-04T01:10:12.061Z,6.9
2018-01-04T01:11:13.105Z,6.9
2018-01-04T01:12:13.011Z,6.95
2018-01-04T01:13:13.025Z,6.83
2018-01-04T01:14:13.207Z,6.94
2018-01-04T01:15:13.430Z,6.94
2018-01-04T01:16:13.642Z,7.04
2018-01-04T01:17:14.182Z,6.98
2018-01-04T01:18:14.461Z,7.04
2018-01-04T01:19:14.733Z,7.01
2018-01-04T01:20:29.073Z,7.03
2018-01-04T01:21:14.514Z,7.01
2018-01-04T01:22:14.723Z,7.11
2018-01-04T01:23:15.136Z,7.18
2018-01-04T01:24:14.919Z,7.19
2018-01-04T01:25:15.125Z,7.21
2018-01-04T01:26:15.140Z,7.27
2018-01-04T01:27:15.145Z,7.13
2018-01-04T01:28:15.123Z,7.15
2018-01-04T01:29:15.710Z,7.05
2018-01-04T01:30:15.302Z,7.03
2018-01-04T01:31:15.814Z,7.01
2018-01-04T01:32:15.540Z,7.03
2018-01-04T01:33:16.078Z,6.9
2018-01-04T01:34:16.344Z,6.85
2018-01-04T01:35:16.586Z,6.88
2018-01-04T01:36:16.036Z,6.91
2018-01-04T01:37:16.208Z,6.88
2018-01-04T01:38:16.542Z,6.83
2018-01-04T01:39:16.776Z,6.83
2018-01-04T01:40:16.818Z,6.9
2018-01-04T01:41:16.685Z,6.88
2018-01-04T01:42:16.987Z,6.88
2018-01-04T01:43:16.867Z,6.9
2018-01-04T01:44:17.290Z,6.9
2018-01-04T01:45:17.478Z,6.9
2018-01-04T01:46:17.107Z,6.9
2018-01-04T01:47:17.408Z,7.01
2018-01-04T01:48:17.275Z,6.94
2018-01-04T01:49:18.024Z,6.97
2018-01-04T01:50:17.484Z,7.08
2018-01-04T01:51:17.798Z,7.01
2018-01-04T01:52:17.831Z,6.94
2018-01-04T01:53:17.627Z,6.94
2018-01-04T01:54:18.219Z,7.03
2018-01-04T01:55:18.143Z,6.93
2018-01-04T01:56:18.236Z,6.98
2018-01-04T01:57:18.754Z,7.03
2018-01-04T01:58:18.229Z,6.98
2018-01-04T01:59:18.788Z,7.04
2018-01-04T02:00:23.774Z,6.98
2018-01-04T02:01:23.916Z,7.09
2018-01-04T02:02:23.895Z,7.05
2018-01-04T02:03:23.284Z,7.03
2018-01-04T02:04:23.837Z,7
2018-01-04T02:05:23.623Z,7.01
2018-01-04T02:06:23.644Z,7.05
2018-01-04T02:07:24.026Z,6.93
2018-01-04T02:08:24.078Z,6.95
2018-01-04T02:09:24.091Z,7.01
2018-01-04T02:10:24.249Z,6.88
2018-01-04T02:11:24.272Z,6.88
2018-01-04T02:12:24.637Z,6.83
2018-01-04T02:13:24.421Z,6.7
2018-01-04T02:14:24.594Z,6.68
2018-01-04T02:15:24.384Z,6.6
2018-01-04T02:16:24.657Z,6.64
2018-01-04T02:17:24.973Z,6.61
2018-01-04T02:18:25.096Z,6.52
2018-01-04T02:19:25.007Z,6.51
2018-01-04T02:20:25.853Z,6.54
2018-01-04T02:21:26.299Z,6.46
2018-01-04T02:22:26.078Z,6.43
2018-01-04T02:23:26.322Z,6.42
2018-01-04T02:24:26.876Z,6.43
2018-01-04T02:25:26.370Z,6.43
2018-01-04T02:26:26.344Z,6.37
2018-01-04T02:27:26.624Z,6.42
2018-01-04T02:28:26.854Z,6.42
2018-01-04T02:29:26.926Z,6.42
2018-01-04T02:30:26.980Z,6.39
2018-01-04T02:31:27.256Z,6.44
2018-01-04T02:32:27.299Z,6.39
2018-01-04T02:34:42.344Z,6.37
2018-01-04T02:35:42.780Z,6.34
2018-01-04T02:36:42.801Z,6.31
2018-01-04T02:37:42.581Z,6.36
2018-01-04T02:38:43.033Z,6.28
2018-01-04T02:39:43.180Z,6.29
2018-01-04T02:40:43.630Z,6.29
2018-01-04T02:41:43.800Z,6.25
2018-01-04T02:42:44.091Z,6.25
2018-01-04T02:43:44.136Z,6.25
2018-01-04T02:44:44.575Z,6.25
2018-01-04T02:45:44.610Z,6.28
2018-01-04T02:46:44.389Z,6.25
2018-01-04T02:47:44.596Z,6.29
2018-01-04T02:48:45.029Z,6.37
2018-01-04T02:49:45.042Z,6.37
2018-01-04T02:50:45.079Z,6.37
2018-01-04T02:51:45.310Z,6.36
2018-01-04T02:52:45.763Z,6.34
2018-01-04T02:53:45.794Z,6.4
2018-01-04T02:54:45.826Z,6.33
2018-01-04T02:55:46.029Z,6.31
2018-01-04T02:56:46.464Z,6.26
2018-01-04T02:57:46.493Z,6.25
2018-01-04T02:58:46.947Z,6.26
2018-01-04T02:59:47.131Z,6.33
2018-01-04T03:00:47.417Z,6.26
2018-01-04T03:01:47.138Z,6.26
2018-01-04T03:02:47.519Z,6.24
2018-01-04T03:03:47.258Z,6.28
2018-01-04T03:04:47.650Z,6.34
2018-01-04T03:05:48.018Z,6.37
2018-01-04T03:06:48.165Z,6.37
2018-01-04T03:07:48.822Z,6.4
2018-01-04T03:08:48.653Z,6.46
2018-01-04T03:09:48.943Z,6.4
2018-01-04T03:10:49.201Z,6.42
2018-01-04T03:11:49.363Z,6.51
2018-01-04T03:12:49.371Z,6.47
2018-01-04T03:13:49.118Z,6.46
2018-01-04T03:14:49.438Z,6.47
2018-01-04T03:15:49.279Z,6.49
2018-01-04T03:16:49.941Z,6.47
2018-01-04T03:17:50.268Z,6.46
2018-01-04T03:18:50.084Z,6.49
2018-01-04T03:19:50.436Z,6.57
2018-01-04T03:20:50.206Z,6.62
2018-01-04T03:21:50.860Z,6.61
2018-01-04T03:22:50.640Z,6.64
2018-01-04T03:23:51.073Z,6.67
2018-01-04T03:24:51.092Z,6.76
2018-01-04T03:25:51.427Z,6.8
2018-01-04T03:26:51.459Z,6.82
2018-01-04T03:27:51.244Z,6.8
2018-01-04T03:28:51.274Z,6.85
2018-01-04T03:29:51.670Z,6.88
2018-01-04T03:30:51.565Z,6.68
2018-01-04T03:31:52.214Z,6.78
2018-01-04T03:32:52.049Z,6.67
2018-01-04T03:33:52.409Z,6.68
2018-01-04T03:34:52.427Z,6.65
2018-01-04T03:35:52.500Z,6.67
2018-01-04T03:36:53.119Z,6.82
2018-01-04T03:37:53.156Z,6.67
2018-01-04T03:38:53.188Z,6.65
2018-01-04T03:39:53.265Z,6.79
2018-01-04T03:40:53.256Z,6.67
2018-01-04T03:41:53.539Z,6.76
2018-01-04T03:42:53.497Z,6.7
2018-01-04T03:43:53.768Z,6.7
2018-01-04T03:44:54.461Z,6.68
2018-01-04T03:45:54.962Z,6.64
2018-01-04T03:46:54.847Z,6.65
2018-01-04T03:47:54.629Z,6.68
2018-01-04T03:48:55.904Z,6.62
2018-01-04T03:49:55.444Z,6.61
2018-01-04T03:50:55.514Z,6.68
2018-01-04T03:51:55.705Z,6.6
2018-01-04T03:52:56.037Z,6.61
2018-01-04T03:53:56.358Z,6.61
2018-01-04T03:54:55.822Z,6.6
2018-01-04T03:55:56.037Z,6.52
2018-01-04T03:56:56.017Z,6.55
2018-01-04T03:57:56.679Z,6.6
2018-01-04T03:58:56.758Z,6.61
2018-01-04T03:59:56.521Z,6.62
2018-01-04T04:00:56.773Z,6.73
2018-01-04T04:01:56.753Z,6.73
2018-01-04T04:03:26.106Z,6.75
2018-01-04T04:03:56.661Z,6.76
2018-01-04T04:04:57.184Z,6.68
2018-01-04T04:05:57.432Z,6.67
2018-01-04T04:06:57.610Z,6.6
2018-01-04T04:07:57.965Z,6.64
2018-01-04T04:08:57.910Z,6.68
2018-01-04T04:09:58.374Z,6.7
2018-01-04T04:10:58.481Z,6.68
2018-01-04T04:11:58.417Z,6.75
2018-01-04T04:12:58.945Z,6.58
2018-01-04T04:13:58.880Z,6.7
2018-01-04T04:14:58.635Z,6.64
2018-01-04T04:15:58.666Z,6.7
2018-01-04T04:16:58.854Z,6.79
2018-01-04T04:17:59.427Z,6.82
2018-01-04T04:18:59.334Z,6.72
2018-01-04T04:19:59.891Z,6.67
2018-01-04T04:20:59.822Z,6.78
2018-01-04T04:22:00.253Z,6.75
2018-01-04T04:23:00.541Z,6.65
2018-01-04T04:24:00.394Z,6.68
2018-01-04T04:25:00.605Z,6.72
2018-01-04T04:26:00.753Z,6.67
2018-01-04T04:27:01.197Z,6.64
2018-01-04T04:28:01.648Z,6.61
2018-01-04T04:29:01.676Z,6.64
2018-01-04T04:30:01.855Z,6.64
2018-01-04T04:31:01.893Z,6.64
2018-01-04T04:32:01.876Z,6.68
2018-01-04T04:33:02.123Z,6.68
2018-01-04T04:34:01.874Z,6.67
2018-01-04T04:35:02.172Z,6.61
2018-01-04T04:36:02.654Z,6.6
2018-01-04T04:37:02.799Z,6.54
2018-01-04T04:38:02.858Z,6.52
2018-01-04T04:39:03.306Z,6.54
2018-01-04T04:40:03.319Z,6.47
2018-01-04T04:41:03.097Z,6.58
2018-01-04T04:42:03.579Z,6.47
2018-01-04T04:43:03.274Z,6.57
2018-01-04T04:44:03.979Z,6.54
2018-01-04T04:45:04.048Z,6.49
2018-01-04T04:46:04.288Z,6.51
2018-01-04T04:47:04.248Z,6.54
2018-01-04T04:48:04.290Z,6.54
2018-01-04T04:49:04.073Z,6.6
2018-01-04T04:50:04.561Z,6.6
2018-01-04T04:51:04.547Z,6.73
2018-01-04T04:52:04.038Z,6.78
2018-01-04T04:53:04.321Z,6.7
2018-01-04T04:54:04.465Z,6.75
2018-01-04T04:55:04.675Z,6.65
2018-01-04T04:56:05.319Z,6.65
2018-01-04T04:57:05.025Z,6.65
2018-01-04T04:58:04.725Z,6.68
2018-01-04T04:59:05.002Z,6.79
2018-01-04T05:00:06.460Z,6.68
2018-01-04T05:01:05.304Z,6.8
2018-01-04T05:02:05.331Z,6.88
2018-01-04T05:03:05.339Z,6.91
2018-01-04T05:04:05.455Z,6.93
2018-01-04T05:05:06.115Z,6.86
2018-01-04T05:06:06.342Z,6.91
2018-01-04T05:07:05.628Z,6.9
2018-01-04T05:08:05.695Z,6.97
2018-01-04T05:09:06.062Z,6.94
2018-01-04T05:10:06.430Z,6.98
2018-01-04T05:11:06.520Z,6.97
2018-01-04T05:12:06.614Z,6.93
2018-01-04T05:13:06.651Z,6.83
2018-01-04T05:14:06.660Z,6.94
2018-01-04T05:15:07.034Z,6.83
2018-01-04T05:16:06.882Z,6.91
2018-01-04T05:17:07.010Z,6.91
2018-01-04T05:18:06.918Z,6.86
2018-01-04T05:19:07.621Z,6.9
2018-01-04T05:20:07.505Z,6.9
2018-01-04T05:21:07.397Z,6.9
2018-01-04T05:22:07.463Z,6.88
2018-01-04T05:23:07.973Z,6.88
2018-01-04T05:24:07.914Z,6.88
2018-01-04T05:25:07.544Z,6.86
2018-01-04T05:26:07.534Z,6.86
2018-01-04T05:27:07.870Z,6.86
2018-01-04T05:28:08.507Z,6.91
2018-01-04T05:29:08.902Z,6.93
2018-01-04T05:30:08.809Z,6.88
2018-01-04T05:31:08.766Z,6.9
2018-01-04T05:32:08.829Z,6.88
2018-01-04T05:33:09.415Z,6.93
2018-01-04T05:34:09.765Z,6.8
2018-01-04T05:35:09.644Z,6.82
2018-01-04T05:36:09.955Z,6.82
2018-01-04T05:37:10.356Z,6.79
2018-01-04T05:38:11.013Z,6.82
2018-01-04T05:39:10.722Z,6.8
2018-01-04T05:40:10.853Z,6.76
2018-01-04T05:41:11.117Z,6.72
2018-01-04T05:42:11.565Z,6.68
2018-01-04T05:43:11.680Z,6.72
2018-01-04T05:44:11.451Z,6.76
2018-01-04T05:45:11.917Z,6.76
2018-01-04T05:46:12.078Z,6.76
2018-01-04T05:47:11.746Z,6.76
2018-01-04T05:48:12.277Z,6.73
2018-01-04T05:49:12.290Z,6.67
2018-01-04T05:50:12.359Z,6.64
2018-01-04T05:51:12.735Z,6.58
2018-01-04T05:52:13.144Z,6.49
2018-01-04T05:53:13.259Z,6.55
2018-01-04T05:54:13.084Z,6.54
2018-01-04T05:55:13.626Z,6.42
2018-01-04T05:56:13.542Z,6.52
2018-01-04T05:57:13.513Z,6.52
2018-01-04T05:58:13.988Z,6.52
2018-01-04T05:59:14.035Z,6.49
2018-01-04T06:00:13.823Z,6.58
2018-01-04T06:01:14.321Z,6.54
2018-01-04T06:02:14.042Z,6.62
2018-01-04T06:03:14.806Z,6.64
2018-01-04T06:04:14.806Z,6.75
2018-01-04T06:05:14.891Z,6.7
2018-01-04T06:06:14.683Z,6.76
2018-01-04T06:07:14.962Z,6.72
2018-01-04T06:08:14.904Z,6.67
2018-01-04T06:09:14.948Z,6.7
2018-01-04T06:10:14.433Z,6.62
2018-01-04T06:11:14.716Z,6.7
2018-01-04T06:12:14.649Z,6.57
2018-01-04T06:13:15.635Z,6.68
2018-01-04T06:14:15.262Z,6.67
2018-01-04T06:15:15.711Z,6.7
2018-01-04T06:16:16.158Z,6.79
2018-01-04T06:17:16.209Z,6.68
2018-01-04T06:18:16.941Z,6.78
2018-01-04T06:19:16.566Z,6.82
2018-01-04T06:20:16.836Z,6.82
2018-01-04T06:21:16.760Z,6.85
2018-01-04T06:22:16.619Z,6.83
2018-01-04T06:23:16.838Z,6.8
2018-01-04T06:24:16.878Z,6.85
2018-01-04T06:25:16.459Z,6.83
2018-01-04T06:26:16.603Z,6.82
2018-01-04T06:27:17.092Z,6.79
2018-01-04T06:28:16.853Z,6.82
2018-01-04T06:29:17.393Z,6.75
2018-01-04T06:30:17.613Z,6.65
2018-01-04T06:31:17.983Z,6.76
2018-01-04T06:32:17.694Z,6.68
2018-01-04T06:33:17.614Z,6.79
2018-01-04T06:34:17.977Z,6.73
2018-01-04T06:35:17.962Z,6.67
2018-01-04T06:36:18.550Z,6.72
2018-01-04T06:37:18.290Z,6.78
2018-01-04T06:38:18.729Z,6.8
2018-01-04T06:39:18.691Z,6.72
2018-01-04T06:40:18.930Z,6.7
2018-01-04T06:41:19.009Z,6.79
2018-01-04T06:42:18.683Z,6.8
2018-01-04T06:43:18.716Z,6.8
2018-01-04T06:44:19.156Z,6.8
2018-01-04T06:45:19.717Z,6.9
2018-01-04T06:46:19.356Z,6.9
2018-01-04T06:47:19.839Z,6.88
2018-01-04T06:48:20.078Z,6.9
2018-01-04T06:49:20.034Z,6.93
2018-01-04T06:50:20.463Z,6.85
2018-01-04T06:51:20.377Z,6.83
2018-01-04T06:52:21.482Z,6.9
2018-01-04T06:53:21.164Z,6.88
2018-01-04T06:54:21.381Z,6.86
2018-01-04T06:55:21.668Z,6.85
2018-01-04T06:56:21.465Z,6.9
2018-01-04T06:57:22.659Z,6.9
2018-01-04T06:58:22.002Z,6.88
2018-01-04T06:59:22.038Z,6.88
2018-01-04T07:00:41.091Z,7.01
2018-01-04T07:01:26.736Z,6.94
2018-01-04T07:02:41.197Z,7
2018-01-04T07:03:26.378Z,7.01
2018-01-04T07:04:27.120Z,6.9
2018-01-04T07:05:27.315Z,6.88
2018-01-04T07:06:27.338Z,6.95
2018-01-04T07:07:27.834Z,6.91
2018-01-04T07:08:28.117Z,6.91
2018-01-04T07:09:27.863Z,6.83
2018-01-04T07:10:28.304Z,6.82
2018-01-04T07:11:28.272Z,6.78
2018-01-04T07:12:28.051Z,6.75
2018-01-04T07:13:28.687Z,6.7
2018-01-04T07:14:28.618Z,6.67
2018-01-04T07:15:28.474Z,6.64
2018-01-04T07:16:28.677Z,6.65
2018-01-04T07:17:28.734Z,6.64
2018-01-04T07:18:28.702Z,6.6
2018-01-04T07:19:29.255Z,6.65
2018-01-04T07:20:29.295Z,6.58
2018-01-04T07:21:29.473Z,6.65
2018-01-04T07:22:29.489Z,6.58
2018-01-04T07:23:29.333Z,6.58
2018-01-04T07:24:29.280Z,6.57
2018-01-04T07:25:29.700Z,6.61
2018-01-04T07:26:29.667Z,6.61
2018-01-04T07:27:30.254Z,6.61
2018-01-04T07:28:29.502Z,6.64
2018-01-04T07:29:29.575Z,6.62
2018-01-04T07:30:29.530Z,6.64
2018-01-04T07:31:29.674Z,6.58
2018-01-04T07:32:29.790Z,6.6
2018-01-04T07:33:32.407Z,6.61
2018-01-04T07:34:30.497Z,6.65
2018-01-04T07:35:30.497Z,6.7
2018-01-04T07:36:31.081Z,6.68
2018-01-04T07:37:31.111Z,6.72
2018-01-04T07:38:31.640Z,6.73
2018-01-04T07:39:32.037Z,6.75
2018-01-04T07:40:31.567Z,6.7
2018-01-04T07:41:31.862Z,6.73
2018-01-04T07:42:31.814Z,6.8
2018-01-04T07:43:32.054Z,6.8
2018-01-04T07:44:32.334Z,6.7
2018-01-04T07:45:31.829Z,6.82
2018-01-04T07:46:32.013Z,6.79
2018-01-04T07:47:32.812Z,6.9
2018-01-04T07:48:32.848Z,6.91
2018-01-04T07:49:33.094Z,6.94
2018-01-04T07:50:33.160Z,6.88
2018-01-04T07:51:34.167Z,6.9
2018-01-04T07:52:33.914Z,6.94
2018-01-04T07:53:33.918Z,7
2018-01-04T07:54:33.968Z,7.01
2018-01-04T07:55:33.801Z,7.01
2018-01-04T07:56:34.149Z,6.93
2018-01-04T07:57:33.768Z,6.95
2018-01-04T07:58:34.294Z,6.97
2018-01-04T07:59:34.732Z,7
2018-01-04T08:00:34.477Z,6.95
2018-01-04T08:01:34.577Z,7.03
2018-01-04T08:02:34.525Z,7
2018-01-04T08:03:34.657Z,6.97
2018-01-04T08:04:35.078Z,7.01
2018-01-04T08:05:35.227Z,7.01
2018-01-04T08:06:35.089Z,6.95
2018-01-04T08:07:35.947Z,6.98
2018-01-04T08:08:36.094Z,6.98
2018-01-04T08:09:35.948Z,7.08
2018-01-04T08:10:36.631Z,6.98
2018-01-04T08:11:36.531Z,6.98
2018-01-04T08:12:37.064Z,7.08
2018-01-04T08:13:37.087Z,7
2018-01-04T08:14:36.982Z,7.03
2018-01-04T08:15:37.371Z,7.09
2018-01-04T08:16:37.809Z,7.16
2018-01-04T08:17:37.534Z,7.13
2018-01-04T08:18:37.776Z,7.23
2018-01-04T08:19:38.099Z,7.21
2018-01-04T08:20:38.152Z,7.31
2018-01-04T08:21:37.895Z,7.29
2018-01-04T08:22:38.185Z,7.34
2018-01-04T08:23:38.198Z,7.33
2018-01-04T08:24:38.417Z,7.23
2018-01-04T08:25:38.274Z,7.26
2018-01-04T08:26:38.316Z,7.22
2018-01-04T08:27:38.777Z,7.26
2018-01-04T08:28:39.177Z,7.21
2018-01-04T08:29:39.191Z,7.22
2018-01-04T08:30:39.699Z,7.18
2018-01-04T08:31:39.625Z,7.27
2018-01-04T08:32:39.427Z,7.21
2018-01-04T08:33:40.064Z,7.27
2018-01-04T08:34:39.406Z,7.34
2018-01-04T08:35:39.997Z,7.3
2018-01-04T08:36:39.999Z,7.34
2018-01-04T08:37:40.264Z,7.33
2018-01-04T08:38:40.483Z,7.39
2018-01-04T08:39:40.506Z,7.31
2018-01-04T08:40:40.550Z,7.29
2018-01-04T08:41:41.101Z,7.29
2018-01-04T08:42:40.906Z,7.37
2018-01-04T08:43:40.646Z,7.36
2018-01-04T08:44:40.380Z,7.3
2018-01-04T08:45:40.388Z,7.33
2018-01-04T08:46:40.845Z,7.36
2018-01-04T08:47:40.614Z,7.29
2018-01-04T08:48:40.786Z,7.3
2018-01-04T08:49:41.167Z,7.3
2018-01-04T08:50:41.097Z,7.33
2018-01-04T08:51:41.848Z,7.34
2018-01-04T08:52:41.899Z,7.34
2018-01-04T08:53:41.881Z,7.31
2018-01-04T08:54:42.317Z,7.31
2018-01-04T08:55:42.204Z,7.23
2018-01-04T08:56:42.795Z,7.26
2018-01-04T08:57:42.838Z,7.3
2018-01-04T08:58:43.268Z,7.33
2018-01-04T08:59:43.195Z,7.4
2018-01-04T09:00:43.226Z,7.49
2018-01-04T09:01:43.238Z,7.47
2018-01-04T09:02:43.268Z,7.47
2018-01-04T09:03:43.397Z,7.48
2018-01-04T09:04:43.372Z,7.56
2018-01-04T09:05:43.729Z,7.71
2018-01-04T09:06:43.172Z,7.58
2018-01-04T09:07:44.008Z,7.73
2018-01-04T09:08:43.442Z,7.73
2018-01-04T09:09:43.506Z,7.73
2018-01-04T09:10:43.524Z,7.77
2018-01-04T09:11:43.234Z,7.78
2018-01-04T09:12:43.464Z,7.82
2018-01-04T09:13:43.480Z,7.83
2018-01-04T09:14:43.846Z,7.86
2018-01-04T09:15:43.998Z,7.96
2018-01-04T09:16:43.832Z,7.91
2018-01-04T09:17:43.899Z,8.01
2018-01-04T09:18:43.641Z,7.96
2018-01-04T09:19:44.294Z,7.98
2018-01-04T09:20:44.085Z,7.99
2018-01-04T09:21:44.011Z,8.03
2018-01-04T09:22:44.338Z,7.88
2018-01-04T09:23:43.831Z,7.82
2018-01-04T09:24:43.882Z,7.8
2018-01-04T09:25:43.914Z,7.91
2018-01-04T09:26:44.247Z,8.06
2018-01-04T09:27:44.614Z,8.1
2018-01-04T09:28:44.639Z,8.16
2018-01-04T09:29:45.742Z,8.25
2018-01-04T09:30:44.469Z,8.35
2018-01-04T09:31:45.393Z,8.34
2018-01-04T09:32:45.143Z,8.31
2018-01-04T09:33:45.457Z,8.35
2018-01-04T09:34:45.845Z,8.42
2018-01-04T09:35:45.820Z,8.52
2018-01-04T09:36:46.625Z,8.6
2018-01-04T09:37:46.574Z,8.87
2018-01-04T09:38:46.708Z,9
2018-01-04T09:39:45.339Z,9
2018-01-04T09:40:45.116Z,8.94
2018-01-04T09:41:45.641Z,9.01
2018-01-04T09:42:45.961Z,9.08
2018-01-04T09:43:46.200Z,9.2
2018-01-04T09:44:45.414Z,9.27
2018-01-04T09:45:45.727Z,9.27
2018-01-04T09:46:45.957Z,9.21
2018-01-04T09:47:45.776Z,9.17
2018-01-04T09:48:45.938Z,8.95
2018-01-04T09:49:46.149Z,8.8
2018-01-04T09:50:46.449Z,8.74
2018-01-04T09:51:46.482Z,8.65
2018-01-04T09:52:46.986Z,8.5
2018-01-04T09:53:46.508Z,8.57
2018-01-04T09:54:46.848Z,8.54
2018-01-04T09:55:46.828Z,8.49
2018-01-04T09:56:47.016Z,8.53
2018-01-04T09:57:47.111Z,8.47
2018-01-04T09:58:46.722Z,8.5
2018-01-04T09:59:47.255Z,8.54
2018-01-04T10:00:46.915Z,8.54
2018-01-04T10:01:47.577Z,8.52
2018-01-04T10:02:47.187Z,8.53
2018-01-04T10:03:47.742Z,8.53
2018-01-04T10:04:47.772Z,8.64
2018-01-04T10:05:47.544Z,8.62
2018-01-04T10:06:47.830Z,8.72
2018-01-04T10:07:47.854Z,9.04
2018-01-04T10:08:48.105Z,9.57
2018-01-04T10:09:48.294Z,10.1
2018-01-04T10:10:48.614Z,10.31
2018-01-04T10:11:48.575Z,10.29
2018-01-04T10:12:48.507Z,10.05
2018-01-04T10:13:48.532Z,9.92
2018-01-04T10:14:48.862Z,9.81
2018-01-04T10:15:48.585Z,9.72
2018-01-04T10:16:48.882Z,9.6
2018-01-04T10:17:49.712Z,9.48
2018-01-04T10:18:49.220Z,9.39
2018-01-04T10:19:49.181Z,9.32
2018-01-04T10:20:49.057Z,9.12
2018-01-04T10:21:50.257Z,9.12
2018-01-04T10:22:49.993Z,9.17
2018-01-04T10:23:49.986Z,9.08
2018-01-04T10:24:50.458Z,9
2018-01-04T10:25:50.509Z,9.05
2018-01-04T10:26:50.373Z,9
2018-01-04T10:27:50.179Z,9
2018-01-04T10:28:49.923Z,8.97
2018-01-04T10:29:50.852Z,8.92
2018-01-04T10:30:50.683Z,9
2018-01-04T10:31:50.454Z,9.04
2018-01-04T10:32:49.804Z,9.03
2018-01-04T10:33:50.358Z,9.03
2018-01-04T10:34:50.135Z,9.03
2018-01-04T10:35:50.146Z,9.08
2018-01-04T10:36:50.605Z,8.97
2018-01-04T10:37:50.392Z,9.08
2018-01-04T10:38:50.301Z,9.04
2018-01-04T10:39:50.884Z,9.03
2018-01-04T10:40:50.967Z,9.04
2018-01-04T10:41:51.204Z,9.03
2018-01-04T10:42:50.659Z,9.12
2018-01-04T10:43:51.858Z,9.09
2018-01-04T10:44:51.238Z,9.12
2018-01-04T10:45:52.487Z,9.08
2018-01-04T10:46:53.188Z,9.04
2018-01-04T10:47:52.016Z,9.09
2018-01-04T10:48:51.764Z,9.2
2018-01-04T10:49:53.799Z,9.3
2018-01-04T10:50:52.697Z,9.3
2018-01-04T10:51:53.000Z,9.41
2018-01-04T10:52:53.936Z,9.38
2018-01-04T10:53:53.144Z,9.34
2018-01-04T10:54:53.345Z,9.29
2018-01-04T10:55:53.385Z,9.05
2018-01-04T10:56:53.341Z,9.03
2018-01-04T10:57:53.943Z,9.03
2018-01-04T10:58:53.854Z,8.97
2018-01-04T10:59:53.903Z,8.9
2018-01-04T11:00:54.155Z,8.89
2018-01-04T11:01:54.437Z,8.89
2018-01-04T11:02:54.813Z,8.92
2018-01-04T11:03:54.697Z,8.86
2018-01-04T11:04:55.016Z,8.86
2018-01-04T11:05:54.884Z,8.76
2018-01-04T11:06:55.349Z,8.79
2018-01-04T11:07:55.448Z,8.74
2018-01-04T11:08:55.354Z,8.69
2018-01-04T11:09:56.057Z,8.68
2018-01-04T11:10:55.489Z,8.71
2018-01-04T11:11:55.654Z,8.69
2018-01-04T11:12:57.202Z,8.72
2018-01-04T11:13:56.468Z,8.67
2018-01-04T11:14:56.421Z,8.62
2018-01-04T11:15:56.854Z,8.67
2018-01-04T11:16:56.601Z,8.64
2018-01-04T11:17:56.638Z,8.57
2018-01-04T11:18:56.929Z,8.58
2018-01-04T11:19:57.662Z,8.57
2018-01-04T11:20:58.527Z,8.61
2018-01-04T11:21:58.796Z,8.61
2018-01-04T11:22:57.974Z,8.64
2018-01-04T11:23:57.336Z,8.58
2018-01-04T11:24:58.209Z,8.49
2018-01-04T11:25:58.664Z,8.49
2018-01-04T11:26:57.782Z,8.49
2018-01-04T11:27:57.917Z,8.53
2018-01-04T11:28:58.011Z,8.47
2018-01-04T11:29:58.211Z,8.57
2018-01-04T11:30:58.701Z,8.6
2018-01-04T11:31:59.060Z,8.52
2018-01-04T11:32:57.839Z,8.58
2018-01-04T11:33:58.740Z,8.62
2018-01-04T11:34:59.200Z,8.62
2018-01-04T11:35:58.974Z,8.72
2018-01-04T11:36:59.735Z,8.89
2018-01-04T11:37:59.302Z,8.9
2018-01-04T11:39:00.118Z,8.89
2018-01-04T11:39:59.454Z,8.9
2018-01-04T11:40:58.621Z,8.87
2018-01-04T11:41:57.988Z,9
2018-01-04T11:42:58.282Z,9
2018-01-04T11:43:59.509Z,9.05
2018-01-04T11:44:59.612Z,9.09
2018-01-04T11:46:00.596Z,9.12
2018-01-04T11:46:59.662Z,9.12
2018-01-04T11:48:00.954Z,9.12
2018-01-04T11:49:00.514Z,9.11
2018-01-04T11:50:15.316Z,9.14
2018-01-04T11:51:00.617Z,9.03
2018-01-04T11:51:59.269Z,9.05
2018-01-04T11:52:59.746Z,9.01
2018-01-04T11:54:00.747Z,9.04
2018-01-04T11:55:00.585Z,9
2018-01-04T11:56:00.705Z,9.04
2018-01-04T11:57:00.026Z,9.01
2018-01-04T11:58:00.754Z,8.98
2018-01-04T11:59:00.585Z,8.89
2018-01-04T12:00:00.228Z,8.79
2018-01-04T12:01:00.110Z,8.71
2018-01-04T12:02:00.141Z,8.62
2018-01-04T12:03:00.204Z,8.65
2018-01-04T12:03:59.795Z,8.67
2018-01-04T12:04:59.835Z,8.64
2018-01-04T12:06:14.813Z,8.87
2018-01-04T12:07:00.542Z,8.98
2018-01-04T12:07:59.701Z,9.17
2018-01-04T12:09:00.243Z,9.26
2018-01-04T12:09:59.892Z,9.27
2018-01-04T12:11:00.402Z,9.39
2018-01-04T12:12:00.920Z,9.27
2018-01-04T12:13:01.631Z,9.34
2018-01-04T12:14:01.194Z,9.09
2018-01-04T12:15:01.254Z,9.08
2018-01-04T12:16:00.956Z,9.21
2018-01-04T12:17:01.264Z,9.03
2018-01-04T12:18:01.290Z,9.04
2018-01-04T12:19:01.989Z,9.01
2018-01-04T12:20:01.409Z,8.87
2018-01-04T12:21:00.879Z,8.77
2018-01-04T12:22:01.423Z,8.74
2018-01-04T12:23:01.935Z,8.72
2018-01-04T12:24:01.888Z,8.68
2018-01-04T12:25:01.572Z,8.64
2018-01-04T12:26:02.317Z,8.64
2018-01-04T12:27:02.111Z,8.6
2018-01-04T12:28:02.091Z,8.64
2018-01-04T12:29:01.746Z,8.71
2018-01-04T12:30:02.025Z,8.62
2018-01-04T12:31:01.499Z,8.71
2018-01-04T12:32:01.869Z,8.69
2018-01-04T12:33:01.701Z,8.72
2018-01-04T12:34:02.167Z,8.74
2018-01-04T12:35:02.346Z,8.69
2018-01-04T12:36:02.023Z,8.64
2018-01-04T12:37:02.301Z,8.53
2018-01-04T12:38:02.026Z,8.61
2018-01-04T12:39:02.668Z,8.58
2018-01-04T12:40:02.381Z,8.49
2018-01-04T12:41:02.421Z,8.46
2018-01-04T12:42:02.223Z,8.49
2018-01-04T12:43:02.964Z,8.47
2018-01-04T12:44:03.345Z,8.43
2018-01-04T12:45:03.071Z,8.4
2018-01-04T12:46:02.745Z,8.43
2018-01-04T12:47:03.804Z,8.39
2018-01-04T12:48:04.001Z,8.43
2018-01-04T12:49:03.377Z,8.34
2018-01-04T12:50:03.777Z,8.36
2018-01-04T12:51:03.634Z,8.43
2018-01-04T12:52:03.990Z,8.47
2018-01-04T12:53:03.478Z,8.52
2018-01-04T12:54:04.216Z,8.53
2018-01-04T12:55:04.288Z,8.57
2018-01-04T12:56:04.004Z,8.49
2018-01-04T12:57:04.298Z,8.5
2018-01-04T12:58:04.792Z,8.46
2018-01-04T12:59:04.366Z,8.47
2018-01-04T13:00:18.991Z,8.43
2018-01-04T13:01:04.705Z,8.43
2018-01-04T13:02:05.140Z,8.42
2018-01-04T13:03:04.899Z,8.44
2018-01-04T13:04:05.745Z,8.4
2018-01-04T13:05:20.428Z,8.39
2018-01-04T13:06:05.590Z,8.39
2018-01-04T13:07:06.629Z,8.36
2018-01-04T13:08:06.339Z,8.35
2018-01-04T13:09:07.058Z,8.34
2018-01-04T13:10:06.349Z,8.39
2018-01-04T13:11:06.333Z,8.34
2018-01-04T13:12:06.581Z,8.34
2018-01-04T13:13:06.541Z,8.34
2018-01-04T13:14:06.813Z,8.34
2018-01-04T13:15:07.056Z,8.36
2018-01-04T13:16:07.271Z,8.32
2018-01-04T13:17:07.255Z,8.39
2018-01-04T13:18:07.033Z,8.29
2018-01-04T13:19:07.148Z,8.32
2018-01-04T13:20:07.089Z,8.35
2018-01-04T13:21:07.017Z,8.28
2018-01-04T13:22:06.799Z,8.24
2018-01-04T13:23:07.340Z,8.26
2018-01-04T13:24:07.542Z,8.34
2018-01-04T13:25:07.722Z,8.28
2018-01-04T13:26:08.247Z,8.39
2018-01-04T13:27:08.804Z,8.35